sensor_id;sensor_type;location;lat;lon;timestamp;P1;durP1;ratioP1;P2;durP2;ratioP2
3953;SDS011;1991;48.682;9.030;2022-12-29T00:01:36;1.27;;;1.00;;
3953;SDS011;1991;48.682;9.030;2022-12-29T00:04:02;4.47;;;2.37;;
3953;SDS011;1991;48.682;9.030;2022-12-29T00:06:28;3.77;;;1.10;;
3953;SDS011;1991;48.682;9.030;2022-12-29T00:08:53;2.53;;;1.30;;
3953;SDS011;1991;48.682;9.030;2022-12-29T00:11:21;3.20;;;1.20;;
3953;SDS011;1991;48.682;9.030;2022-12-29T00:13:48;2.43;;;0.90;;
3953;SDS011;1991;48.682;9.030;2022-12-29T00:16:34;3.27;;;1.57;;
3953;SDS011;1991;48.682;9.030;2022-12-29T00:19:00;2.40;;;1.40;;
3953;SDS011;1991;48.682;9.030;2022-12-29T00:21:27;2.23;;;1.33;;
3953;SDS011;1991;48.682;9.030;2022-12-29T00:24:13;1.33;;;1.03;;
3953;SDS011;1991;48.682;9.030;2022-12-29T00:26:53;2.60;;;1.07;;
3953;SDS011;1991;48.682;9.030;2022-12-29T00:29:38;1.87;;;1.00;;
3953;SDS011;1991;48.682;9.030;2022-12-29T00:32:22;1.60;;;0.93;;
3953;SDS011;1991;48.682;9.030;2022-12-29T00:35:08;3.03;;;0.90;;
3953;SDS011;1991;48.682;9.030;2022-12-29T00:37:42;3.30;;;1.00;;
3953;SDS011;1991;48.682;9.030;2022-12-29T00:40:29;2.30;;;1.20;;
3953;SDS011;1991;48.682;9.030;2022-12-29T00:43:13;5.57;;;1.00;;
3953;SDS011;1991;48.682;9.030;2022-12-29T00:45:57;2.23;;;1.00;;
3953;SDS011;1991;48.682;9.030;2022-12-29T00:48:23;2.70;;;0.97;;
3953;SDS011;1991;48.682;9.030;2022-12-29T00:51:09;3.17;;;1.20;;
3953;SDS011;1991;48.682;9.030;2022-12-29T00:53:34;2.63;;;0.90;;
3953;SDS011;1991;48.682;9.030;2022-12-29T00:56:00;3.20;;;1.30;;
3953;SDS011;1991;48.682;9.030;2022-12-29T00:58:29;2.30;;;1.10;;
3953;SDS011;1991;48.682;9.030;2022-12-29T01:01:02;2.40;;;1.10;;
3953;SDS011;1991;48.682;9.030;2022-12-29T01:03:29;1.93;;;1.00;;
3953;SDS011;1991;48.682;9.030;2022-12-29T01:05:55;3.47;;;1.17;;
3953;SDS011;1991;48.682;9.030;2022-12-29T01:08:20;7.40;;;1.07;;
3953;SDS011;1991;48.682;9.030;2022-12-29T01:10:46;3.27;;;1.03;;
3953;SDS011;1991;48.682;9.030;2022-12-29T01:13:11;1.87;;;0.87;;
3953;SDS011;1991;48.682;9.030;2022-12-29T01:15:37;1.77;;;1.00;;
3953;SDS011;1991;48.682;9.030;2022-12-29T01:18:03;3.03;;;1.17;;
3953;SDS011;1991;48.682;9.030;2022-12-29T01:20:28;1.30;;;1.00;;
3953;SDS011;1991;48.682;9.030;2022-12-29T01:22:54;2.67;;;1.00;;
3953;SDS011;1991;48.682;9.030;2022-12-29T01:25:19;1.87;;;0.87;;
3953;SDS011;1991;48.682;9.030;2022-12-29T01:27:45;1.03;;;0.93;;
3953;SDS011;1991;48.682;9.030;2022-12-29T01:30:11;5.83;;;2.20;;
3953;SDS011;1991;48.682;9.030;2022-12-29T01:32:37;2.80;;;0.80;;
3953;SDS011;1991;48.682;9.030;2022-12-29T01:35:02;1.27;;;0.73;;
3953;SDS011;1991;48.682;9.030;2022-12-29T01:37:28;1.83;;;1.10;;
3953;SDS011;1991;48.682;9.030;2022-12-29T01:39:54;1.23;;;0.90;;
3953;SDS011;1991;48.682;9.030;2022-12-29T01:42:22;2.60;;;1.00;;
3953;SDS011;1991;48.682;9.030;2022-12-29T01:47:41;1.03;;;0.80;;
3953;SDS011;1991;48.682;9.030;2022-12-29T01:50:09;2.00;;;0.90;;
3953;SDS011;1991;48.682;9.030;2022-12-29T01:52:44;2.07;;;0.73;;
3953;SDS011;1991;48.682;9.030;2022-12-29T01:55:24;2.90;;;1.10;;
3953;SDS011;1991;48.682;9.030;2022-12-29T01:57:55;1.93;;;1.03;;
3953;SDS011;1991;48.682;9.030;2022-12-29T02:00:23;3.27;;;1.33;;
3953;SDS011;1991;48.682;9.030;2022-12-29T02:02:52;2.27;;;0.97;;
3953;SDS011;1991;48.682;9.030;2022-12-29T02:05:27;4.60;;;0.80;;
3953;SDS011;1991;48.682;9.030;2022-12-29T02:07:58;3.30;;;0.70;;
3953;SDS011;1991;48.682;9.030;2022-12-29T02:10:26;1.27;;;0.90;;
3953;SDS011;1991;48.682;9.030;2022-12-29T02:12:55;3.17;;;0.77;;
3953;SDS011;1991;48.682;9.030;2022-12-29T02:37:59;2.27;;;0.70;;
3953;SDS011;1991;48.682;9.030;2022-12-29T02:41:00;1.90;;;0.77;;
3953;SDS011;1991;48.682;9.030;2022-12-29T02:43:38;5.23;;;0.77;;
3953;SDS011;1991;48.682;9.030;2022-12-29T02:49:02;2.30;;;0.80;;
3953;SDS011;1991;48.682;9.030;2022-12-29T02:54:18;2.03;;;0.60;;
3953;SDS011;1991;48.682;9.030;2022-12-29T02:57:03;2.63;;;1.30;;
3953;SDS011;1991;48.682;9.030;2022-12-29T02:59:32;6.00;;;1.00;;
3953;SDS011;1991;48.682;9.030;2022-12-29T03:02:14;3.70;;;0.80;;
3953;SDS011;1991;48.682;9.030;2022-12-29T03:04:53;1.73;;;0.70;;
3953;SDS011;1991;48.682;9.030;2022-12-29T03:07:43;3.97;;;0.80;;
3953;SDS011;1991;48.682;9.030;2022-12-29T03:10:25;2.40;;;0.70;;
3953;SDS011;1991;48.682;9.030;2022-12-29T03:16:23;3.97;;;1.10;;
3953;SDS011;1991;48.682;9.030;2022-12-29T03:19:07;3.07;;;0.87;;
3953;SDS011;1991;48.682;9.030;2022-12-29T03:21:46;2.70;;;0.77;;
3953;SDS011;1991;48.682;9.030;2022-12-29T03:24:36;2.87;;;0.80;;
3953;SDS011;1991;48.682;9.030;2022-12-29T03:27:09;1.43;;;0.70;;
3953;SDS011;1991;48.682;9.030;2022-12-29T03:29:39;5.40;;;0.80;;
3953;SDS011;1991;48.682;9.030;2022-12-29T03:32:09;1.63;;;0.70;;
3953;SDS011;1991;48.682;9.030;2022-12-29T03:34:38;1.37;;;0.77;;
3953;SDS011;1991;48.682;9.030;2022-12-29T03:37:05;3.80;;;0.77;;
3953;SDS011;1991;48.682;9.030;2022-12-29T03:39:37;1.33;;;0.60;;
3953;SDS011;1991;48.682;9.030;2022-12-29T03:42:09;3.53;;;0.80;;
3953;SDS011;1991;48.682;9.030;2022-12-29T03:44:40;2.57;;;1.10;;
3953;SDS011;1991;48.682;9.030;2022-12-29T03:47:09;2.63;;;1.00;;
3953;SDS011;1991;48.682;9.030;2022-12-29T03:49:36;3.03;;;0.80;;
3953;SDS011;1991;48.682;9.030;2022-12-29T03:52:02;3.47;;;0.80;;
3953;SDS011;1991;48.682;9.030;2022-12-29T03:54:29;4.03;;;0.70;;
3953;SDS011;1991;48.682;9.030;2022-12-29T03:56:55;3.33;;;0.90;;
3953;SDS011;1991;48.682;9.030;2022-12-29T03:59:20;2.97;;;1.00;;
3953;SDS011;1991;48.682;9.030;2022-12-29T04:01:46;2.40;;;0.60;;
3953;SDS011;1991;48.682;9.030;2022-12-29T04:04:12;1.33;;;0.60;;
3953;SDS011;1991;48.682;9.030;2022-12-29T04:06:37;4.80;;;0.80;;
3953;SDS011;1991;48.682;9.030;2022-12-29T04:09:03;5.47;;;0.70;;
3953;SDS011;1991;48.682;9.030;2022-12-29T04:11:28;1.13;;;0.80;;
3953;SDS011;1991;48.682;9.030;2022-12-29T04:13:54;1.37;;;0.80;;
3953;SDS011;1991;48.682;9.030;2022-12-29T04:16:20;1.83;;;0.60;;
3953;SDS011;1991;48.682;9.030;2022-12-29T04:18:45;2.00;;;0.77;;
3953;SDS011;1991;48.682;9.030;2022-12-29T04:21:11;2.43;;;0.73;;
3953;SDS011;1991;48.682;9.030;2022-12-29T04:23:37;2.57;;;0.77;;
3953;SDS011;1991;48.682;9.030;2022-12-29T04:26:04;1.50;;;1.00;;
3953;SDS011;1991;48.682;9.030;2022-12-29T04:28:34;0.80;;;0.70;;
3953;SDS011;1991;48.682;9.030;2022-12-29T04:31:00;2.53;;;1.10;;
3953;SDS011;1991;48.682;9.030;2022-12-29T04:33:25;4.10;;;1.07;;
3953;SDS011;1991;48.682;9.030;2022-12-29T04:35:51;2.07;;;1.00;;
3953;SDS011;1991;48.682;9.030;2022-12-29T04:38:19;1.87;;;0.70;;
3953;SDS011;1991;48.682;9.030;2022-12-29T04:40:45;2.63;;;1.00;;
3953;SDS011;1991;48.682;9.030;2022-12-29T04:43:12;1.50;;;1.00;;
3953;SDS011;1991;48.682;9.030;2022-12-29T04:45:38;2.30;;;0.77;;
3953;SDS011;1991;48.682;9.030;2022-12-29T04:48:13;1.40;;;0.90;;
3953;SDS011;1991;48.682;9.030;2022-12-29T04:50:39;2.17;;;1.47;;
3953;SDS011;1991;48.682;9.030;2022-12-29T04:53:05;2.83;;;1.00;;
3953;SDS011;1991;48.682;9.030;2022-12-29T04:55:31;2.40;;;1.00;;
3953;SDS011;1991;48.682;9.030;2022-12-29T04:57:56;2.77;;;1.00;;
3953;SDS011;1991;48.682;9.030;2022-12-29T05:00:22;2.17;;;1.00;;
3953;SDS011;1991;48.682;9.030;2022-12-29T05:02:47;2.07;;;1.10;;
3953;SDS011;1991;48.682;9.030;2022-12-29T05:05:13;3.10;;;0.93;;
3953;SDS011;1991;48.682;9.030;2022-12-29T05:07:39;3.40;;;0.97;;
3953;SDS011;1991;48.682;9.030;2022-12-29T05:10:05;2.03;;;0.97;;
3953;SDS011;1991;48.682;9.030;2022-12-29T05:12:32;4.63;;;1.07;;
3953;SDS011;1991;48.682;9.030;2022-12-29T05:14:58;3.27;;;1.20;;
3953;SDS011;1991;48.682;9.030;2022-12-29T05:17:24;3.00;;;1.03;;
3953;SDS011;1991;48.682;9.030;2022-12-29T05:19:50;4.47;;;1.33;;
3953;SDS011;1991;48.682;9.030;2022-12-29T05:22:16;1.90;;;1.00;;
3953;SDS011;1991;48.682;9.030;2022-12-29T05:24:42;2.23;;;1.03;;
3953;SDS011;1991;48.682;9.030;2022-12-29T05:27:07;3.57;;;1.27;;
3953;SDS011;1991;48.682;9.030;2022-12-29T05:29:33;0.70;;;0.70;;
3953;SDS011;1991;48.682;9.030;2022-12-29T05:31:58;3.83;;;1.00;;
3953;SDS011;1991;48.682;9.030;2022-12-29T05:34:24;2.23;;;1.13;;
3953;SDS011;1991;48.682;9.030;2022-12-29T05:36:49;1.77;;;1.00;;
3953;SDS011;1991;48.682;9.030;2022-12-29T05:39:15;3.53;;;1.33;;
3953;SDS011;1991;48.682;9.030;2022-12-29T05:41:41;2.67;;;1.10;;
3953;SDS011;1991;48.682;9.030;2022-12-29T05:44:06;2.73;;;1.00;;
3953;SDS011;1991;48.682;9.030;2022-12-29T05:46:32;3.63;;;1.10;;
3953;SDS011;1991;48.682;9.030;2022-12-29T05:48:57;2.30;;;1.07;;
3953;SDS011;1991;48.682;9.030;2022-12-29T05:51:23;4.37;;;1.20;;
3953;SDS011;1991;48.682;9.030;2022-12-29T05:53:49;2.30;;;0.90;;
3953;SDS011;1991;48.682;9.030;2022-12-29T05:56:17;2.27;;;1.23;;
3953;SDS011;1991;48.682;9.030;2022-12-29T05:58:43;4.20;;;1.17;;
3953;SDS011;1991;48.682;9.030;2022-12-29T06:01:08;2.10;;;0.80;;
3953;SDS011;1991;48.682;9.030;2022-12-29T06:03:34;4.73;;;1.00;;
3953;SDS011;1991;48.682;9.030;2022-12-29T06:06:00;2.50;;;0.80;;
3953;SDS011;1991;48.682;9.030;2022-12-29T06:08:25;2.77;;;1.10;;
3953;SDS011;1991;48.682;9.030;2022-12-29T06:10:51;2.43;;;0.83;;
3953;SDS011;1991;48.682;9.030;2022-12-29T06:13:17;1.83;;;1.00;;
3953;SDS011;1991;48.682;9.030;2022-12-29T06:15:42;2.67;;;1.00;;
3953;SDS011;1991;48.682;9.030;2022-12-29T06:18:08;4.90;;;1.10;;
3953;SDS011;1991;48.682;9.030;2022-12-29T06:20:34;2.80;;;1.00;;
3953;SDS011;1991;48.682;9.030;2022-12-29T06:22:59;2.10;;;1.00;;
3953;SDS011;1991;48.682;9.030;2022-12-29T06:25:25;2.40;;;1.10;;
3953;SDS011;1991;48.682;9.030;2022-12-29T06:27:50;0.77;;;0.60;;
3953;SDS011;1991;48.682;9.030;2022-12-29T06:30:16;2.23;;;1.20;;
3953;SDS011;1991;48.682;9.030;2022-12-29T06:32:42;1.50;;;1.00;;
3953;SDS011;1991;48.682;9.030;2022-12-29T06:35:08;0.87;;;0.80;;
3953;SDS011;1991;48.682;9.030;2022-12-29T06:37:34;4.13;;;1.33;;
3953;SDS011;1991;48.682;9.030;2022-12-29T06:40:01;1.70;;;1.07;;
3953;SDS011;1991;48.682;9.030;2022-12-29T06:42:27;5.97;;;1.40;;
3953;SDS011;1991;48.682;9.030;2022-12-29T06:44:52;2.83;;;0.90;;
3953;SDS011;1991;48.682;9.030;2022-12-29T06:47:18;2.37;;;1.23;;
3953;SDS011;1991;48.682;9.030;2022-12-29T06:49:43;2.80;;;0.93;;
3953;SDS011;1991;48.682;9.030;2022-12-29T06:52:09;2.57;;;0.83;;
3953;SDS011;1991;48.682;9.030;2022-12-29T06:54:35;2.23;;;1.00;;
3953;SDS011;1991;48.682;9.030;2022-12-29T06:57:00;3.93;;;0.87;;
3953;SDS011;1991;48.682;9.030;2022-12-29T06:59:26;1.57;;;1.00;;
3953;SDS011;1991;48.682;9.030;2022-12-29T07:01:51;1.27;;;0.77;;
3953;SDS011;1991;48.682;9.030;2022-12-29T07:04:17;2.20;;;0.80;;
3953;SDS011;1991;48.682;9.030;2022-12-29T07:06:43;1.63;;;1.00;;
3953;SDS011;1991;48.682;9.030;2022-12-29T07:09:08;1.60;;;1.10;;
3953;SDS011;1991;48.682;9.030;2022-12-29T07:11:34;2.00;;;1.03;;
3953;SDS011;1991;48.682;9.030;2022-12-29T07:14:00;1.70;;;1.10;;
3953;SDS011;1991;48.682;9.030;2022-12-29T07:16:27;2.50;;;1.03;;
3953;SDS011;1991;48.682;9.030;2022-12-29T07:18:54;1.53;;;0.80;;
3953;SDS011;1991;48.682;9.030;2022-12-29T07:21:20;1.63;;;1.00;;
3953;SDS011;1991;48.682;9.030;2022-12-29T07:23:45;2.27;;;1.40;;
3953;SDS011;1991;48.682;9.030;2022-12-29T07:26:12;2.17;;;1.10;;
3953;SDS011;1991;48.682;9.030;2022-12-29T07:28:40;3.10;;;1.27;;
3953;SDS011;1991;48.682;9.030;2022-12-29T07:31:07;4.03;;;1.50;;
3953;SDS011;1991;48.682;9.030;2022-12-29T07:33:46;2.03;;;0.90;;
3953;SDS011;1991;48.682;9.030;2022-12-29T07:36:13;2.33;;;1.07;;
3953;SDS011;1991;48.682;9.030;2022-12-29T07:38:39;3.43;;;1.03;;
3953;SDS011;1991;48.682;9.030;2022-12-29T07:41:05;1.73;;;0.97;;
3953;SDS011;1991;48.682;9.030;2022-12-29T07:43:31;2.57;;;0.90;;
3953;SDS011;1991;48.682;9.030;2022-12-29T07:45:56;1.60;;;1.10;;
3953;SDS011;1991;48.682;9.030;2022-12-29T07:48:22;2.93;;;1.17;;
3953;SDS011;1991;48.682;9.030;2022-12-29T07:50:48;1.57;;;0.87;;
3953;SDS011;1991;48.682;9.030;2022-12-29T07:53:14;2.10;;;1.00;;
3953;SDS011;1991;48.682;9.030;2022-12-29T07:55:40;1.83;;;0.97;;
3953;SDS011;1991;48.682;9.030;2022-12-29T07:58:06;1.73;;;1.40;;
3953;SDS011;1991;48.682;9.030;2022-12-29T08:00:31;2.53;;;1.00;;
3953;SDS011;1991;48.682;9.030;2022-12-29T08:02:57;4.73;;;1.30;;
3953;SDS011;1991;48.682;9.030;2022-12-29T08:05:23;1.57;;;1.10;;
3953;SDS011;1991;48.682;9.030;2022-12-29T08:07:48;3.00;;;1.23;;
3953;SDS011;1991;48.682;9.030;2022-12-29T08:10:14;3.13;;;1.03;;
3953;SDS011;1991;48.682;9.030;2022-12-29T08:12:41;2.00;;;1.00;;
3953;SDS011;1991;48.682;9.030;2022-12-29T08:15:07;5.17;;;1.37;;
3953;SDS011;1991;48.682;9.030;2022-12-29T08:17:34;2.10;;;1.10;;
3953;SDS011;1991;48.682;9.030;2022-12-29T08:20:00;2.30;;;0.90;;
3953;SDS011;1991;48.682;9.030;2022-12-29T08:22:26;2.73;;;1.10;;
3953;SDS011;1991;48.682;9.030;2022-12-29T08:24:51;1.37;;;0.90;;
3953;SDS011;1991;48.682;9.030;2022-12-29T08:27:17;3.03;;;1.30;;
3953;SDS011;1991;48.682;9.030;2022-12-29T08:29:43;5.40;;;1.20;;
3953;SDS011;1991;48.682;9.030;2022-12-29T08:32:09;2.57;;;1.20;;
3953;SDS011;1991;48.682;9.030;2022-12-29T08:34:35;3.57;;;1.20;;
3953;SDS011;1991;48.682;9.030;2022-12-29T08:37:01;3.40;;;1.00;;
3953;SDS011;1991;48.682;9.030;2022-12-29T08:39:27;1.70;;;0.90;;
3953;SDS011;1991;48.682;9.030;2022-12-29T08:41:53;3.50;;;1.40;;
3953;SDS011;1991;48.682;9.030;2022-12-29T08:44:19;1.77;;;1.13;;
3953;SDS011;1991;48.682;9.030;2022-12-29T08:46:45;5.43;;;1.00;;
3953;SDS011;1991;48.682;9.030;2022-12-29T08:49:10;1.63;;;0.70;;
3953;SDS011;1991;48.682;9.030;2022-12-29T08:51:36;3.93;;;1.10;;
3953;SDS011;1991;48.682;9.030;2022-12-29T08:54:01;3.53;;;1.00;;
3953;SDS011;1991;48.682;9.030;2022-12-29T08:56:27;2.37;;;1.10;;
3953;SDS011;1991;48.682;9.030;2022-12-29T08:58:53;1.37;;;1.10;;
3953;SDS011;1991;48.682;9.030;2022-12-29T09:01:19;1.57;;;0.87;;
3953;SDS011;1991;48.682;9.030;2022-12-29T09:03:45;4.23;;;1.30;;
3953;SDS011;1991;48.682;9.030;2022-12-29T09:06:11;2.30;;;0.90;;
3953;SDS011;1991;48.682;9.030;2022-12-29T09:08:37;2.73;;;1.10;;
3953;SDS011;1991;48.682;9.030;2022-12-29T09:11:09;2.33;;;1.20;;
3953;SDS011;1991;48.682;9.030;2022-12-29T09:13:36;2.30;;;1.37;;
3953;SDS011;1991;48.682;9.030;2022-12-29T09:16:02;3.77;;;1.20;;
3953;SDS011;1991;48.682;9.030;2022-12-29T09:18:28;2.13;;;0.90;;
3953;SDS011;1991;48.682;9.030;2022-12-29T09:20:58;2.10;;;0.80;;
3953;SDS011;1991;48.682;9.030;2022-12-29T09:23:25;2.07;;;1.00;;
3953;SDS011;1991;48.682;9.030;2022-12-29T09:25:51;2.90;;;0.80;;
3953;SDS011;1991;48.682;9.030;2022-12-29T09:28:17;3.43;;;1.00;;
3953;SDS011;1991;48.682;9.030;2022-12-29T09:30:43;1.83;;;0.87;;
3953;SDS011;1991;48.682;9.030;2022-12-29T09:33:08;1.60;;;0.93;;
3953;SDS011;1991;48.682;9.030;2022-12-29T09:35:34;2.00;;;0.90;;
3953;SDS011;1991;48.682;9.030;2022-12-29T09:38:00;2.67;;;0.80;;
3953;SDS011;1991;48.682;9.030;2022-12-29T09:48:29;2.17;;;0.83;;
3953;SDS011;1991;48.682;9.030;2022-12-29T09:51:03;3.87;;;0.80;;
3953;SDS011;1991;48.682;9.030;2022-12-29T09:53:38;2.10;;;0.83;;
3953;SDS011;1991;48.682;9.030;2022-12-29T09:56:13;2.83;;;0.80;;
3953;SDS011;1991;48.682;9.030;2022-12-29T09:58:47;3.87;;;1.40;;
3953;SDS011;1991;48.682;9.030;2022-12-29T10:03:58;5.73;;;0.90;;
3953;SDS011;1991;48.682;9.030;2022-12-29T10:25:17;3.78;;;0.90;;
3953;SDS011;1991;48.682;9.030;2022-12-29T10:27:48;3.70;;;1.20;;
3953;SDS011;1991;48.682;9.030;2022-12-29T10:30:15;3.67;;;1.03;;
3953;SDS011;1991;48.682;9.030;2022-12-29T10:32:49;1.27;;;0.80;;
3953;SDS011;1991;48.682;9.030;2022-12-29T10:35:28;1.25;;;0.80;;
3953;SDS011;1991;48.682;9.030;2022-12-29T10:38:11;2.85;;;0.85;;
3953;SDS011;1991;48.682;9.030;2022-12-29T10:41:05;6.28;;;1.08;;
3953;SDS011;1991;48.682;9.030;2022-12-29T10:46:09;2.00;;;1.00;;
3953;SDS011;1991;48.682;9.030;2022-12-29T10:48:38;2.30;;;0.93;;
3953;SDS011;1991;48.682;9.030;2022-12-29T10:51:05;4.15;;;1.10;;
3953;SDS011;1991;48.682;9.030;2022-12-29T10:53:39;4.18;;;1.13;;
3953;SDS011;1991;48.682;9.030;2022-12-29T10:56:25;3.58;;;0.80;;
3953;SDS011;1991;48.682;9.030;2022-12-29T10:58:52;1.52;;;1.00;;
3953;SDS011;1991;48.682;9.030;2022-12-29T11:01:20;2.45;;;0.80;;
3953;SDS011;1991;48.682;9.030;2022-12-29T11:03:55;5.28;;;0.93;;
3953;SDS011;1991;48.682;9.030;2022-12-29T11:06:35;2.22;;;1.13;;
3953;SDS011;1991;48.682;9.030;2022-12-29T11:09:09;2.20;;;0.95;;
3953;SDS011;1991;48.682;9.030;2022-12-29T11:11:49;3.72;;;1.00;;
3953;SDS011;1991;48.682;9.030;2022-12-29T11:14:18;4.90;;;1.15;;
3953;SDS011;1991;48.682;9.030;2022-12-29T11:16:57;1.90;;;0.95;;
3953;SDS011;1991;48.682;9.030;2022-12-29T11:19:24;2.30;;;1.00;;
3953;SDS011;1991;48.682;9.030;2022-12-29T11:21:51;1.80;;;0.93;;
3953;SDS011;1991;48.682;9.030;2022-12-29T11:24:27;2.43;;;0.93;;
3953;SDS011;1991;48.682;9.030;2022-12-29T11:26:54;3.22;;;1.10;;
3953;SDS011;1991;48.682;9.030;2022-12-29T11:29:37;1.47;;;1.07;;
3953;SDS011;1991;48.682;9.030;2022-12-29T11:34:42;1.23;;;0.80;;
3953;SDS011;1991;48.682;9.030;2022-12-29T11:37:12;0.88;;;0.73;;
3953;SDS011;1991;48.682;9.030;2022-12-29T11:39:45;3.00;;;0.90;;
3953;SDS011;1991;48.682;9.030;2022-12-29T11:42:22;2.25;;;0.88;;
3953;SDS011;1991;48.682;9.030;2022-12-29T11:45:04;4.28;;;0.98;;
3953;SDS011;1991;48.682;9.030;2022-12-29T11:47:41;2.67;;;0.98;;
3953;SDS011;1991;48.682;9.030;2022-12-29T11:50:15;3.03;;;1.63;;
3953;SDS011;1991;48.682;9.030;2022-12-29T11:52:44;1.40;;;0.80;;
3953;SDS011;1991;48.682;9.030;2022-12-29T11:55:23;0.93;;;0.70;;
3953;SDS011;1991;48.682;9.030;2022-12-29T11:57:52;3.20;;;1.03;;
3953;SDS011;1991;48.682;9.030;2022-12-29T12:00:20;2.97;;;0.80;;
3953;SDS011;1991;48.682;9.030;2022-12-29T12:08:19;1.53;;;0.70;;
3953;SDS011;1991;48.682;9.030;2022-12-29T12:11:07;5.57;;;1.40;;
3953;SDS011;1991;48.682;9.030;2022-12-29T12:13:43;1.37;;;0.67;;
3953;SDS011;1991;48.682;9.030;2022-12-29T12:16:24;2.20;;;1.07;;
3953;SDS011;1991;48.682;9.030;2022-12-29T12:21:33;3.93;;;1.00;;
3953;SDS011;1991;48.682;9.030;2022-12-29T12:26:53;2.47;;;1.13;;
3953;SDS011;1991;48.682;9.030;2022-12-29T12:35:02;3.07;;;1.10;;
3953;SDS011;1991;48.682;9.030;2022-12-29T12:43:26;2.80;;;1.47;;
3953;SDS011;1991;48.682;9.030;2022-12-29T12:59:30;2.88;;;1.17;;
3953;SDS011;1991;48.682;9.030;2022-12-29T13:02:36;3.42;;;0.80;;
3953;SDS011;1991;48.682;9.030;2022-12-29T13:05:44;3.00;;;1.02;;
3953;SDS011;1991;48.682;9.030;2022-12-29T13:10:54;2.08;;;1.10;;
3953;SDS011;1991;48.682;9.030;2022-12-29T13:19:33;1.00;;;0.90;;
3953;SDS011;1991;48.682;9.030;2022-12-29T13:22:26;3.03;;;1.00;;
3953;SDS011;1991;48.682;9.030;2022-12-29T13:30:53;2.08;;;1.00;;
3953;SDS011;1991;48.682;9.030;2022-12-29T13:38:40;2.33;;;1.10;;
3953;SDS011;1991;48.682;9.030;2022-12-29T13:41:12;3.60;;;1.45;;
3953;SDS011;1991;48.682;9.030;2022-12-29T13:43:47;5.80;;;1.35;;
3953;SDS011;1991;48.682;9.030;2022-12-29T13:46:18;2.17;;;1.35;;
3953;SDS011;1991;48.682;9.030;2022-12-29T13:49:21;4.00;;;1.37;;
3953;SDS011;1991;48.682;9.030;2022-12-29T13:51:56;3.17;;;1.30;;
3953;SDS011;1991;48.682;9.030;2022-12-29T13:57:14;1.50;;;0.93;;
3953;SDS011;1991;48.682;9.030;2022-12-29T14:00:15;1.80;;;1.08;;
3953;SDS011;1991;48.682;9.030;2022-12-29T14:07:43;4.80;;;1.80;;
3953;SDS011;1991;48.682;9.030;2022-12-29T14:13:22;3.85;;;1.33;;
3953;SDS011;1991;48.682;9.030;2022-12-29T14:15:53;2.63;;;1.52;;
3953;SDS011;1991;48.682;9.030;2022-12-29T14:18:23;3.73;;;1.30;;
3953;SDS011;1991;48.682;9.030;2022-12-29T14:20:54;2.95;;;1.40;;
3953;SDS011;1991;48.682;9.030;2022-12-29T14:28:31;3.00;;;1.00;;
3953;SDS011;1991;48.682;9.030;2022-12-29T14:31:00;2.00;;;1.42;;
3953;SDS011;1991;48.682;9.030;2022-12-29T14:33:27;2.50;;;1.60;;
3953;SDS011;1991;48.682;9.030;2022-12-29T14:35:55;5.25;;;1.73;;
3953;SDS011;1991;48.682;9.030;2022-12-29T14:38:23;2.15;;;1.35;;
3953;SDS011;1991;48.682;9.030;2022-12-29T14:40:51;1.17;;;1.00;;
3953;SDS011;1991;48.682;9.030;2022-12-29T14:43:19;4.87;;;2.53;;
3953;SDS011;1991;48.682;9.030;2022-12-29T14:45:51;3.10;;;1.20;;
3953;SDS011;1991;48.682;9.030;2022-12-29T14:48:36;3.40;;;1.50;;
3953;SDS011;1991;48.682;9.030;2022-12-29T14:51:16;3.10;;;1.20;;
3953;SDS011;1991;48.682;9.030;2022-12-29T14:53:53;3.23;;;1.20;;
3953;SDS011;1991;48.682;9.030;2022-12-29T14:56:19;3.53;;;1.10;;
3953;SDS011;1991;48.682;9.030;2022-12-29T14:59:00;2.50;;;0.90;;
3953;SDS011;1991;48.682;9.030;2022-12-29T15:04:15;2.70;;;1.67;;
3953;SDS011;1991;48.682;9.030;2022-12-29T15:06:44;2.07;;;1.40;;
3953;SDS011;1991;48.682;9.030;2022-12-29T15:11:48;3.63;;;1.50;;
3953;SDS011;1991;48.682;9.030;2022-12-29T15:16:54;2.20;;;1.17;;
3953;SDS011;1991;48.682;9.030;2022-12-29T15:19:23;1.87;;;1.40;;
3953;SDS011;1991;48.682;9.030;2022-12-29T15:21:49;2.23;;;1.10;;
3953;SDS011;1991;48.682;9.030;2022-12-29T15:24:17;2.33;;;1.23;;
3953;SDS011;1991;48.682;9.030;2022-12-29T15:26:44;2.50;;;1.27;;
3953;SDS011;1991;48.682;9.030;2022-12-29T15:32:01;2.40;;;1.10;;
3953;SDS011;1991;48.682;9.030;2022-12-29T15:34:42;2.73;;;1.20;;
3953;SDS011;1991;48.682;9.030;2022-12-29T15:37:08;2.97;;;1.40;;
3953;SDS011;1991;48.682;9.030;2022-12-29T15:39:34;4.43;;;1.33;;
3953;SDS011;1991;48.682;9.030;2022-12-29T15:42:09;5.63;;;1.53;;
3953;SDS011;1991;48.682;9.030;2022-12-29T15:44:47;2.90;;;1.40;;
3953;SDS011;1991;48.682;9.030;2022-12-29T15:47:14;4.53;;;1.50;;
3953;SDS011;1991;48.682;9.030;2022-12-29T15:49:53;4.03;;;1.40;;
3953;SDS011;1991;48.682;9.030;2022-12-29T15:52:24;2.07;;;1.30;;
3953;SDS011;1991;48.682;9.030;2022-12-29T15:54:56;3.30;;;1.30;;
3953;SDS011;1991;48.682;9.030;2022-12-29T15:57:25;2.63;;;1.53;;
3953;SDS011;1991;48.682;9.030;2022-12-29T15:59:53;4.53;;;2.37;;
3953;SDS011;1991;48.682;9.030;2022-12-29T16:02:20;3.80;;;2.00;;
3953;SDS011;1991;48.682;9.030;2022-12-29T16:04:47;2.73;;;1.97;;
3953;SDS011;1991;48.682;9.030;2022-12-29T16:07:24;4.03;;;2.13;;
3953;SDS011;1991;48.682;9.030;2022-12-29T16:09:59;2.73;;;1.77;;
3953;SDS011;1991;48.682;9.030;2022-12-29T16:12:28;1.97;;;0.97;;
3953;SDS011;1991;48.682;9.030;2022-12-29T16:14:57;1.60;;;1.00;;
3953;SDS011;1991;48.682;9.030;2022-12-29T16:17:33;3.73;;;1.63;;
3953;SDS011;1991;48.682;9.030;2022-12-29T16:20:20;1.57;;;1.10;;
3953;SDS011;1991;48.682;9.030;2022-12-29T16:22:49;1.47;;;1.10;;
3953;SDS011;1991;48.682;9.030;2022-12-29T16:27:56;0.90;;;0.80;;
3953;SDS011;1991;48.682;9.030;2022-12-29T16:30:32;1.70;;;1.07;;
3953;SDS011;1991;48.682;9.030;2022-12-29T16:33:03;3.50;;;1.30;;
3953;SDS011;1991;48.682;9.030;2022-12-29T16:38:21;2.53;;;1.40;;
3953;SDS011;1991;48.682;9.030;2022-12-29T16:40:54;2.80;;;1.50;;
3953;SDS011;1991;48.682;9.030;2022-12-29T16:43:22;2.53;;;1.13;;
3953;SDS011;1991;48.682;9.030;2022-12-29T16:48:25;2.83;;;1.20;;
3953;SDS011;1991;48.682;9.030;2022-12-29T16:51:00;3.07;;;1.33;;
3953;SDS011;1991;48.682;9.030;2022-12-29T16:53:50;2.23;;;1.30;;
3953;SDS011;1991;48.682;9.030;2022-12-29T16:56:22;2.73;;;1.50;;
3953;SDS011;1991;48.682;9.030;2022-12-29T16:58:52;1.13;;;1.03;;
3953;SDS011;1991;48.682;9.030;2022-12-29T17:01:34;1.80;;;1.20;;
3953;SDS011;1991;48.682;9.030;2022-12-29T17:04:07;0.97;;;0.87;;
3953;SDS011;1991;48.682;9.030;2022-12-29T17:06:35;2.77;;;1.30;;
3953;SDS011;1991;48.682;9.030;2022-12-29T17:09:01;3.70;;;1.70;;
3953;SDS011;1991;48.682;9.030;2022-12-29T17:11:27;4.23;;;1.60;;
3953;SDS011;1991;48.682;9.030;2022-12-29T17:16:45;2.57;;;1.60;;
3953;SDS011;1991;48.682;9.030;2022-12-29T17:19:14;2.87;;;1.33;;
3953;SDS011;1991;48.682;9.030;2022-12-29T17:21:42;1.17;;;0.93;;
3953;SDS011;1991;48.682;9.030;2022-12-29T17:24:13;2.13;;;1.23;;
3953;SDS011;1991;48.682;9.030;2022-12-29T17:26:41;3.00;;;1.50;;
3953;SDS011;1991;48.682;9.030;2022-12-29T17:29:08;3.53;;;1.77;;
3953;SDS011;1991;48.682;9.030;2022-12-29T17:31:41;4.03;;;2.07;;
3953;SDS011;1991;48.682;9.030;2022-12-29T17:34:07;2.63;;;2.17;;
3953;SDS011;1991;48.682;9.030;2022-12-29T17:36:35;7.33;;;2.77;;
3953;SDS011;1991;48.682;9.030;2022-12-29T17:39:01;4.10;;;2.93;;
3953;SDS011;1991;48.682;9.030;2022-12-29T17:41:33;11.43;;;4.57;;
3953;SDS011;1991;48.682;9.030;2022-12-29T17:44:00;6.70;;;4.30;;
3953;SDS011;1991;48.682;9.030;2022-12-29T17:46:26;5.67;;;3.33;;
3953;SDS011;1991;48.682;9.030;2022-12-29T17:48:52;5.13;;;3.00;;
3953;SDS011;1991;48.682;9.030;2022-12-29T17:51:19;4.30;;;2.80;;
3953;SDS011;1991;48.682;9.030;2022-12-29T17:53:45;4.47;;;2.67;;
3953;SDS011;1991;48.682;9.030;2022-12-29T17:56:11;3.50;;;2.60;;
3953;SDS011;1991;48.682;9.030;2022-12-29T17:58:37;4.30;;;2.40;;
3953;SDS011;1991;48.682;9.030;2022-12-29T18:01:02;4.80;;;2.90;;
3953;SDS011;1991;48.682;9.030;2022-12-29T18:03:34;3.40;;;2.50;;
3953;SDS011;1991;48.682;9.030;2022-12-29T18:06:02;4.80;;;2.90;;
3953;SDS011;1991;48.682;9.030;2022-12-29T18:08:30;5.13;;;3.03;;
3953;SDS011;1991;48.682;9.030;2022-12-29T18:10:56;5.53;;;3.30;;
3953;SDS011;1991;48.682;9.030;2022-12-29T18:13:29;5.53;;;2.90;;
3953;SDS011;1991;48.682;9.030;2022-12-29T18:15:57;7.43;;;4.50;;